createdAt,value
2019-05-03T00:02:58.943Z,3.00
2019-05-03T00:05:56.212Z,2.70
2019-05-03T00:08:25.880Z,2.87
2019-05-03T00:10:55.426Z,3.00
2019-05-03T00:13:24.959Z,3.10
2019-05-03T00:16:12.226Z,3.50
2019-05-03T00:18:42.232Z,3.60
2019-05-03T00:21:11.815Z,3.57
2019-05-03T00:23:41.883Z,3.60
2019-05-03T00:26:11.983Z,3.70
2019-05-03T00:28:42.630Z,3.20
2019-05-03T00:31:12.593Z,3.40
2019-05-03T00:33:43.933Z,3.07
2019-05-03T00:36:22.492Z,3.13
2019-05-03T00:38:54.156Z,2.60
2019-05-03T00:41:23.711Z,2.40
2019-05-03T00:43:53.203Z,2.63
2019-05-03T00:46:22.759Z,2.73
2019-05-03T00:48:52.569Z,2.50
2019-05-03T00:51:22.498Z,2.60
2019-05-03T00:53:53.158Z,2.80
2019-05-03T00:56:22.771Z,2.67
2019-05-03T00:58:58.325Z,2.30
2019-05-03T01:01:27.855Z,2.67
2019-05-03T01:03:57.460Z,2.60
2019-05-03T01:06:26.965Z,2.47
2019-05-03T01:08:56.475Z,3.10
2019-05-03T01:11:26.147Z,2.63
2019-05-03T01:13:55.703Z,2.60
2019-05-03T01:16:25.728Z,2.47
2019-05-03T01:18:55.281Z,2.83
2019-05-03T01:21:24.812Z,2.77
2019-05-03T01:23:54.389Z,2.53
2019-05-03T01:26:23.958Z,2.77
2019-05-03T01:28:53.525Z,2.80
2019-05-03T01:31:23.124Z,2.73
2019-05-03T01:33:52.821Z,2.90
2019-05-03T01:36:22.969Z,3.00
2019-05-03T01:38:53.188Z,3.17
2019-05-03T01:41:23.015Z,3.33
2019-05-03T01:43:52.823Z,3.07
2019-05-03T01:46:22.958Z,3.13
2019-05-03T01:49:29.381Z,3.00
2019-05-03T01:52:18.777Z,2.90
2019-05-03T01:54:48.345Z,2.87
2019-05-03T01:57:17.815Z,2.90
2019-05-03T01:59:47.367Z,2.30
2019-05-03T02:02:52.470Z,2.30
2019-05-03T02:05:42.804Z,2.50
2019-05-03T02:08:13.801Z,2.40
2019-05-03T02:10:43.704Z,2.37
2019-05-03T02:13:13.245Z,2.40
2019-05-03T02:15:42.867Z,2.30
2019-05-03T02:18:14.923Z,2.30
2019-05-03T02:20:43.705Z,2.50
2019-05-03T02:23:13.280Z,2.50
2019-05-03T02:25:55.400Z,2.30
2019-05-03T02:28:14.013Z,2.60
2019-05-03T02:30:44.277Z,2.70
2019-05-03T02:33:14.177Z,2.43
2019-05-03T02:35:43.756Z,2.27
2019-05-03T02:38:14.191Z,2.40
2019-05-03T02:40:43.803Z,2.17
2019-05-03T02:43:26.134Z,2.33
2019-05-03T02:46:20.186Z,2.30
2019-05-03T02:48:58.022Z,2.27
2019-05-03T02:51:27.533Z,2.00
2019-05-03T02:53:57.417Z,1.80
2019-05-03T02:56:26.985Z,2.00
2019-05-03T02:58:56.551Z,1.80
2019-05-03T03:01:26.858Z,1.80
2019-05-03T03:03:57.269Z,2.10
2019-05-03T03:06:28.006Z,1.70
2019-05-03T03:08:59.075Z,1.50
2019-05-03T03:11:30.395Z,1.80
2019-05-03T03:14:02.160Z,1.63
2019-05-03T03:16:36.222Z,1.73
2019-05-03T03:19:06.642Z,1.80
2019-05-03T03:21:41.550Z,1.57
2019-05-03T03:24:17.435Z,1.80
2019-05-03T03:26:47.825Z,1.80
2019-05-03T03:29:18.470Z,1.63
2019-05-03T03:31:59.785Z,2.00
2019-05-03T03:34:37.985Z,2.17
2019-05-03T03:37:09.722Z,1.67
2019-05-03T03:39:36.413Z,1.80
2019-05-03T03:42:06.076Z,1.87
2019-05-03T03:44:36.590Z,1.70
2019-05-03T03:47:06.932Z,2.00
2019-05-03T03:49:38.484Z,2.27
2019-05-03T03:52:09.723Z,2.43
2019-05-03T03:54:42.072Z,2.63
2019-05-03T03:57:15.913Z,2.27
2019-05-03T03:59:45.753Z,2.80
2019-05-03T04:02:16.412Z,3.20
2019-05-03T04:04:45.942Z,3.43
2019-05-03T04:07:16.132Z,3.00
2019-05-03T04:09:45.945Z,2.90
2019-05-03T04:12:16.528Z,3.30
2019-05-03T04:15:05.831Z,3.60
2019-05-03T04:17:57.474Z,3.70
2019-05-03T04:20:30.148Z,3.67
2019-05-03T04:23:00.120Z,3.57
2019-05-03T04:25:30.020Z,3.33
2019-05-03T04:27:59.573Z,3.20
2019-05-03T04:30:29.077Z,4.20
2019-05-03T04:32:58.735Z,3.70
2019-05-03T04:35:28.275Z,3.80
2019-05-03T04:37:57.837Z,3.80
2019-05-03T04:40:27.336Z,3.30
2019-05-03T04:42:57.049Z,3.73
2019-05-03T04:45:26.556Z,4.50
2019-05-03T04:47:56.471Z,4.67
2019-05-03T04:50:26.104Z,8.30
2019-05-03T04:52:56.564Z,8.10
2019-05-03T04:55:26.931Z,9.77
2019-05-03T04:57:56.618Z,4.93
2019-05-03T05:00:26.349Z,4.60
2019-05-03T05:02:55.911Z,4.30
2019-05-03T05:05:26.332Z,5.00
2019-05-03T05:07:56.095Z,4.60
2019-05-03T05:10:26.246Z,4.43
2019-05-03T05:12:55.931Z,4.20
2019-05-03T05:15:26.493Z,4.07
2019-05-03T05:18:16.029Z,4.20
2019-05-03T05:21:04.591Z,4.07
2019-05-03T05:23:35.321Z,3.90
2019-05-03T05:26:11.579Z,4.27
2019-05-03T05:28:48.997Z,4.33
2019-05-03T05:31:18.551Z,4.07
2019-05-03T05:33:48.119Z,4.03
2019-05-03T05:36:17.672Z,4.50
2019-05-03T05:38:47.173Z,5.07
2019-05-03T05:41:16.704Z,5.20
2019-05-03T05:43:46.220Z,5.00
2019-05-03T05:46:16.524Z,4.90
2019-05-03T05:48:49.023Z,4.53
2019-05-03T05:51:18.539Z,4.23
2019-05-03T05:53:48.043Z,4.70
2019-05-03T05:56:28.544Z,4.70
2019-05-03T05:59:09.071Z,4.43
2019-05-03T06:01:45.674Z,4.20
2019-05-03T06:04:15.499Z,4.63
2019-05-03T06:07:04.591Z,4.43
2019-05-03T06:09:56.152Z,4.70
2019-05-03T06:12:31.478Z,4.77
2019-05-03T06:15:05.429Z,4.63
2019-05-03T06:17:51.822Z,4.50
2019-05-03T06:20:37.324Z,4.80
2019-05-03T06:23:18.544Z,4.20
2019-05-03T06:25:48.097Z,4.13
2019-05-03T06:28:27.532Z,4.30
2019-05-03T06:31:09.642Z,4.03
2019-05-03T06:33:39.186Z,4.13
2019-05-03T06:36:08.980Z,3.90
2019-05-03T06:38:38.486Z,4.07
2019-05-03T06:41:08.036Z,4.40
2019-05-03T06:43:39.598Z,4.47
2019-05-03T06:46:08.788Z,4.20
2019-05-03T06:48:38.308Z,4.73
2019-05-03T06:51:10.529Z,4.50
2019-05-03T06:53:41.750Z,4.33
2019-05-03T06:56:10.330Z,4.90
2019-05-03T06:58:39.940Z,5.20
2019-05-03T07:01:22.426Z,5.20
2019-05-03T07:03:56.234Z,5.50
2019-05-03T07:06:40.898Z,6.87
2019-05-03T07:09:35.290Z,6.20
2019-05-03T07:12:04.599Z,6.53
2019-05-03T07:14:34.963Z,5.07
2019-05-03T07:17:05.542Z,6.07
2019-05-03T07:19:35.510Z,6.43
2019-05-03T07:22:05.215Z,7.30
2019-05-03T07:24:40.332Z,44.97
2019-05-03T07:27:06.106Z,24.17
2019-05-03T07:29:36.626Z,13.10
2019-05-03T07:32:06.209Z,12.63
2019-05-03T07:34:35.788Z,12.40
2019-05-03T07:37:06.027Z,13.13
2019-05-03T07:39:35.618Z,12.37
2019-05-03T07:42:05.566Z,12.23
2019-05-03T07:44:35.120Z,12.73
2019-05-03T07:47:04.973Z,13.47
2019-05-03T07:49:35.716Z,14.00
2019-05-03T07:52:06.008Z,14.30
2019-05-03T07:54:35.753Z,15.80
2019-05-03T07:57:25.686Z,17.20
2019-05-03T07:59:55.692Z,18.13
2019-05-03T08:02:27.550Z,19.10
2019-05-03T08:04:56.532Z,20.40
2019-05-03T08:07:26.079Z,21.80
2019-05-03T08:09:55.741Z,25.53
2019-05-03T08:12:25.342Z,26.93
2019-05-03T08:14:55.265Z,24.00
2019-05-03T08:17:25.596Z,29.57
2019-05-03T08:19:55.468Z,18.67
2019-05-03T08:22:25.671Z,16.10
2019-05-03T08:24:55.648Z,15.40
2019-05-03T08:27:25.337Z,14.30
2019-05-03T08:29:55.777Z,15.10
2019-05-03T08:32:35.151Z,15.70
2019-05-03T08:35:21.101Z,15.67
2019-05-03T08:37:56.009Z,13.90
2019-05-03T08:40:27.959Z,18.20
2019-05-03T08:42:57.552Z,22.73
2019-05-03T08:45:27.084Z,20.40
2019-05-03T08:47:56.669Z,19.43
2019-05-03T08:50:26.274Z,18.90
2019-05-03T08:52:56.031Z,23.43
2019-05-03T08:55:25.578Z,19.63
2019-05-03T08:57:55.311Z,15.17
2019-05-03T09:00:26.647Z,15.27
2019-05-03T09:02:56.205Z,12.90
2019-05-03T09:05:25.783Z,11.03
2019-05-03T09:07:55.381Z,9.87
2019-05-03T09:10:39.448Z,10.07
2019-05-03T09:13:16.879Z,10.70
2019-05-03T09:15:46.958Z,10.17
2019-05-03T09:18:17.472Z,9.37
2019-05-03T09:20:47.270Z,10.63
2019-05-03T09:23:16.914Z,9.97
2019-05-03T09:25:46.439Z,9.70
2019-05-03T09:28:16.022Z,9.87
2019-05-03T09:30:45.676Z,9.33
2019-05-03T09:33:15.478Z,9.30
2019-05-03T09:35:45.704Z,7.90
2019-05-03T09:38:15.396Z,7.40
2019-05-03T09:40:45.537Z,8.80
2019-05-03T09:43:15.285Z,10.97
2019-05-03T09:45:45.781Z,17.10
2019-05-03T09:48:15.450Z,16.83
2019-05-03T09:50:45.298Z,18.73
2019-05-03T09:53:16.981Z,35.20
2019-05-03T09:55:46.532Z,19.33
2019-05-03T09:58:16.128Z,11.03
2019-05-03T10:00:46.810Z,9.40
2019-05-03T10:03:16.364Z,7.87
2019-05-03T10:05:45.981Z,9.87
2019-05-03T10:08:15.888Z,9.10
2019-05-03T10:11:05.322Z,9.00
2019-05-03T10:13:35.419Z,9.33
2019-05-03T10:16:06.180Z,9.10
2019-05-03T10:18:36.324Z,8.10
2019-05-03T10:21:06.083Z,12.40
2019-05-03T10:23:39.802Z,25.80
2019-05-03T10:26:09.714Z,22.90
2019-05-03T10:28:39.314Z,37.33
2019-05-03T10:31:09.015Z,13.83
2019-05-03T10:33:46.069Z,11.33
2019-05-03T10:36:15.671Z,6.20
2019-05-03T10:38:45.980Z,4.00
2019-05-03T10:41:15.904Z,3.00
2019-05-03T10:43:45.484Z,3.80
2019-05-03T10:46:16.003Z,3.17
2019-05-03T10:48:45.721Z,3.40
2019-05-03T10:51:15.964Z,4.90
2019-05-03T10:53:48.886Z,17.63
2019-05-03T10:56:23.011Z,7.60
2019-05-03T10:59:09.791Z,11.57
2019-05-03T11:02:04.065Z,8.43
2019-05-03T11:04:35.469Z,3.50
2019-05-03T11:07:05.531Z,1.93
2019-05-03T11:09:48.039Z,1.83
2019-05-03T11:12:07.117Z,1.60
2019-05-03T11:14:36.613Z,1.60
2019-05-03T11:17:06.171Z,1.87
2019-05-03T11:19:35.802Z,11.17
2019-05-03T11:22:05.704Z,3.90
2019-05-03T11:24:35.299Z,6.90
2019-05-03T11:27:08.868Z,8.33
2019-05-03T11:29:38.463Z,5.10
2019-05-03T11:32:14.992Z,2.10
2019-05-03T11:34:50.696Z,1.80
2019-05-03T11:37:51.323Z,1.40
2019-05-03T11:40:20.997Z,1.40
2019-05-03T11:42:51.439Z,1.50
2019-05-03T11:45:21.098Z,1.50
2019-05-03T11:47:50.671Z,1.60
2019-05-03T11:50:20.246Z,1.53
2019-05-03T11:52:49.789Z,1.80
2019-05-03T11:55:19.303Z,2.30
2019-05-03T11:57:48.858Z,2.80
2019-05-03T12:00:25.340Z,2.90
2019-05-03T12:03:15.635Z,3.87
2019-05-03T12:05:48.103Z,4.07
2019-05-03T12:08:17.647Z,7.20
2019-05-03T12:10:55.421Z,30.63
2019-05-03T12:13:31.586Z,14.97
2019-05-03T12:16:02.920Z,18.43
2019-05-03T12:18:47.833Z,21.73
2019-05-03T12:21:08.029Z,9.40
2019-05-03T12:23:36.982Z,6.47
2019-05-03T12:26:12.793Z,6.30
2019-05-03T12:28:38.039Z,7.17
2019-05-03T12:31:07.591Z,6.53
2019-05-03T12:33:37.128Z,6.63
2019-05-03T12:36:06.739Z,6.57
2019-05-03T12:38:36.436Z,6.30
2019-05-03T12:41:06.023Z,6.80
2019-05-03T12:43:35.625Z,7.00
2019-05-03T12:46:05.304Z,6.10
2019-05-03T12:48:35.447Z,7.13
2019-05-03T12:51:06.724Z,9.40
2019-05-03T12:53:36.678Z,10.53
2019-05-03T12:56:11.114Z,14.20
2019-05-03T12:58:50.149Z,14.77
2019-05-03T13:01:45.276Z,17.83
2019-05-03T13:04:18.503Z,7.67
2019-05-03T13:06:54.855Z,7.27
2019-05-03T13:09:25.191Z,8.00
2019-05-03T13:11:58.911Z,8.40
2019-05-03T13:14:27.278Z,9.30
2019-05-03T13:16:56.832Z,31.17
2019-05-03T13:19:26.363Z,25.77
2019-05-03T13:21:55.895Z,43.70
2019-05-03T13:24:26.042Z,39.93
2019-05-03T13:26:55.656Z,19.90
2019-05-03T13:29:25.614Z,10.17
2019-05-03T13:32:01.598Z,9.40
2019-05-03T13:34:26.469Z,9.73
2019-05-03T13:36:56.057Z,9.87
2019-05-03T13:39:26.524Z,10.10
2019-05-03T13:41:56.166Z,10.13
2019-05-03T13:44:25.703Z,8.93
2019-05-03T13:46:55.348Z,9.67
2019-05-03T13:49:26.521Z,9.07
2019-05-03T13:51:56.170Z,9.50
2019-05-03T13:54:25.734Z,10.93
2019-05-03T13:56:55.365Z,10.03
2019-05-03T13:59:24.984Z,10.70
2019-05-03T14:01:54.711Z,18.13
2019-05-03T14:04:24.280Z,7.23
2019-05-03T14:06:55.211Z,7.43
2019-05-03T14:09:25.121Z,7.00
2019-05-03T14:11:55.311Z,6.80
2019-05-03T14:14:25.846Z,7.60
2019-05-03T14:16:55.555Z,7.50
2019-05-03T14:19:31.596Z,8.10
2019-05-03T14:22:05.189Z,7.90
2019-05-03T14:24:35.130Z,7.93
2019-05-03T14:27:05.551Z,7.30
2019-05-03T14:29:35.154Z,7.27
2019-05-03T14:32:05.279Z,6.93
2019-05-03T14:34:35.907Z,6.90
2019-05-03T14:37:05.597Z,6.40
2019-05-03T14:39:35.162Z,16.33
2019-05-03T14:42:04.849Z,11.50
2019-05-03T14:44:35.734Z,9.97
2019-05-03T14:47:05.838Z,6.20
2019-05-03T14:49:35.404Z,9.93
2019-05-03T14:52:05.563Z,11.30
2019-05-03T14:54:36.819Z,9.70
2019-05-03T14:57:28.279Z,6.83
2019-05-03T15:00:17.256Z,7.63
2019-05-03T15:03:11.209Z,8.47
2019-05-03T15:05:40.787Z,11.43
2019-05-03T15:08:10.366Z,10.07
2019-05-03T15:10:39.915Z,12.47
2019-05-03T15:13:09.458Z,17.40
2019-05-03T15:15:38.989Z,13.00
2019-05-03T15:18:08.537Z,14.80
2019-05-03T15:20:40.977Z,9.63
2019-05-03T15:23:09.281Z,11.47
2019-05-03T15:25:38.912Z,9.20
2019-05-03T15:28:08.461Z,8.90
2019-05-03T15:30:38.099Z,8.90
2019-05-03T15:33:07.681Z,8.93
2019-05-03T15:35:37.225Z,8.80
2019-05-03T15:38:06.764Z,9.40
2019-05-03T15:40:36.359Z,9.53
2019-05-03T15:43:14.934Z,9.93
2019-05-03T15:46:01.858Z,10.43
2019-05-03T15:48:35.320Z,11.20
2019-05-03T15:51:04.941Z,10.47
2019-05-03T15:53:35.300Z,10.10
2019-05-03T15:56:05.375Z,10.10
2019-05-03T15:58:34.978Z,11.17
2019-05-03T16:01:04.864Z,21.10
2019-05-03T16:03:35.748Z,17.90
2019-05-03T16:06:05.330Z,16.83
2019-05-03T16:08:34.847Z,16.43
2019-05-03T16:11:05.385Z,21.17
2019-05-03T16:13:35.554Z,15.57
2019-05-03T16:16:06.220Z,12.20
2019-05-03T16:18:35.790Z,12.00
2019-05-03T16:21:06.172Z,11.93
2019-05-03T16:23:35.737Z,11.43
2019-05-03T16:26:05.290Z,12.47
2019-05-03T16:28:48.838Z,12.20
2019-05-03T16:31:20.709Z,11.63
2019-05-03T16:33:50.266Z,13.00
2019-05-03T16:36:19.809Z,45.90
2019-05-03T16:38:49.382Z,42.50
2019-05-03T16:41:18.912Z,44.07
2019-05-03T16:43:48.510Z,136.20
2019-05-03T16:46:18.937Z,22.73
2019-05-03T16:48:48.515Z,12.53
2019-05-03T16:51:18.099Z,11.33
2019-05-03T16:53:47.651Z,12.23
2019-05-03T16:56:17.337Z,12.03
2019-05-03T16:58:46.888Z,11.93
2019-05-03T17:01:18.137Z,11.17
2019-05-03T17:03:54.981Z,11.50
2019-05-03T17:06:41.722Z,10.97
2019-05-03T17:09:45.304Z,10.40
2019-05-03T17:12:20.478Z,14.27
2019-05-03T17:14:50.064Z,15.37
2019-05-03T17:17:19.601Z,15.37
2019-05-03T17:19:49.179Z,21.80
2019-05-03T17:22:18.755Z,23.10
2019-05-03T17:24:48.334Z,12.70
2019-05-03T17:27:17.924Z,12.57
2019-05-03T17:29:47.494Z,11.27
2019-05-03T17:32:17.079Z,11.43
2019-05-03T17:34:46.616Z,12.00
2019-05-03T17:37:16.160Z,11.90
2019-05-03T17:40:10.654Z,11.87
2019-05-03T17:43:05.025Z,12.20
2019-05-03T17:45:38.271Z,12.13
2019-05-03T17:48:07.847Z,15.40
2019-05-03T17:50:37.475Z,15.70
2019-05-03T17:53:25.926Z,14.93
2019-05-03T17:56:18.113Z,25.40
2019-05-03T17:58:51.215Z,13.13
2019-05-03T18:01:51.795Z,11.37
2019-05-03T18:04:46.250Z,9.87
2019-05-03T18:07:32.143Z,9.50
2019-05-03T18:10:02.125Z,9.90
2019-05-03T18:12:31.683Z,10.90
2019-05-03T18:15:01.275Z,10.20
2019-05-03T18:17:30.791Z,10.57
2019-05-03T18:20:00.408Z,10.53
2019-05-03T18:22:29.973Z,11.20
2019-05-03T18:24:59.575Z,15.23
2019-05-03T18:27:29.593Z,14.03
2019-05-03T18:29:59.207Z,13.23
2019-05-03T18:32:28.846Z,13.57
2019-05-03T18:34:58.378Z,15.37
2019-05-03T18:37:27.955Z,18.63
2019-05-03T18:39:57.539Z,12.50
2019-05-03T18:42:50.637Z,11.07
2019-05-03T18:45:25.531Z,10.93
2019-05-03T18:47:55.155Z,11.47
2019-05-03T18:50:24.709Z,11.77
2019-05-03T18:52:55.418Z,11.37
2019-05-03T18:55:25.304Z,12.07
2019-05-03T18:57:54.829Z,12.20
2019-05-03T19:00:24.881Z,11.40
2019-05-03T19:02:54.688Z,12.30
2019-05-03T19:05:26.008Z,11.93
2019-05-03T19:08:17.265Z,11.83
2019-05-03T19:10:50.976Z,11.63
2019-05-03T19:13:26.277Z,11.93
2019-05-03T19:15:55.716Z,11.30
2019-05-03T19:18:36.443Z,11.67
2019-05-03T19:21:06.026Z,11.17
2019-05-03T19:23:35.748Z,11.63
2019-05-03T19:26:05.703Z,11.07
2019-05-03T19:28:35.526Z,11.27
2019-05-03T19:31:05.401Z,11.13
2019-05-03T19:33:37.204Z,10.40
2019-05-03T19:36:06.622Z,10.37
2019-05-03T19:38:36.204Z,10.23
2019-05-03T19:41:05.734Z,10.90
2019-05-03T19:43:35.620Z,10.20
2019-05-03T19:46:07.486Z,10.67
2019-05-03T19:48:36.486Z,11.10
2019-05-03T19:51:06.086Z,11.83
2019-05-03T19:53:48.016Z,12.93
2019-05-03T19:56:18.892Z,12.33
2019-05-03T19:58:48.474Z,11.30
2019-05-03T20:01:39.955Z,11.80
2019-05-03T20:04:41.331Z,11.53
2019-05-03T20:07:34.679Z,11.73
2019-05-03T20:10:05.186Z,11.67
2019-05-03T20:12:35.350Z,11.90
2019-05-03T20:15:05.322Z,12.07
2019-05-03T20:17:34.897Z,11.73
2019-05-03T20:20:04.989Z,11.83
2019-05-03T20:22:35.088Z,11.87
2019-05-03T20:25:05.326Z,11.77
2019-05-03T20:27:35.295Z,11.33
2019-05-03T20:30:05.841Z,11.03
2019-05-03T20:32:35.440Z,11.77
2019-05-03T20:35:16.626Z,11.70
2019-05-03T20:37:36.360Z,11.87
2019-05-03T20:40:05.997Z,10.63
2019-05-03T20:42:54.341Z,11.17
2019-05-03T20:45:28.742Z,10.77
2019-05-03T20:47:59.717Z,11.20
2019-05-03T20:50:29.266Z,11.03
2019-05-03T20:52:58.822Z,10.50
2019-05-03T20:55:28.388Z,10.70
2019-05-03T20:57:57.905Z,10.00
2019-05-03T21:00:27.481Z,9.90
2019-05-03T21:02:57.447Z,10.27
2019-05-03T21:05:31.229Z,9.90
2019-05-03T21:07:58.319Z,10.13
2019-05-03T21:10:27.878Z,9.80
2019-05-03T21:12:57.404Z,10.23
2019-05-03T21:15:35.454Z,10.63
2019-05-03T21:18:24.247Z,10.20
2019-05-03T21:21:02.029Z,9.63
2019-05-03T21:23:34.522Z,10.37
2019-05-03T21:26:13.022Z,9.90
2019-05-03T21:28:39.835Z,9.63
2019-05-03T21:31:09.367Z,10.00
2019-05-03T21:33:38.881Z,9.70
2019-05-03T21:36:08.535Z,9.80
2019-05-03T21:38:40.672Z,9.47
2019-05-03T21:41:09.327Z,10.10
2019-05-03T21:43:38.877Z,9.67
2019-05-03T21:46:25.426Z,9.67
2019-05-03T21:49:05.989Z,10.10
2019-05-03T21:51:35.565Z,10.53
2019-05-03T21:54:06.811Z,10.73
2019-05-03T21:56:36.297Z,9.73
2019-05-03T21:59:05.893Z,10.27
2019-05-03T22:01:37.646Z,10.13
2019-05-03T22:04:07.210Z,9.90
2019-05-03T22:06:36.790Z,10.13
2019-05-03T22:09:06.818Z,10.60
2019-05-03T22:11:36.349Z,10.77
2019-05-03T22:14:09.550Z,10.10
2019-05-03T22:16:51.336Z,10.47
2019-05-03T22:19:20.864Z,10.50
2019-05-03T22:22:01.701Z,9.97
2019-05-03T22:24:44.707Z,9.30
2019-05-03T22:27:18.443Z,10.53
2019-05-03T22:29:47.958Z,10.63
2019-05-03T22:32:17.522Z,10.37
2019-05-03T22:34:47.067Z,11.20
2019-05-03T22:37:16.763Z,11.10
2019-05-03T22:39:47.740Z,11.17
2019-05-03T22:42:17.335Z,11.03
2019-05-03T22:44:46.855Z,11.37
2019-05-03T22:47:16.434Z,11.70
2019-05-03T22:49:45.984Z,12.27
2019-05-03T22:52:15.537Z,13.33
2019-05-03T22:54:45.264Z,13.33
2019-05-03T22:57:15.301Z,13.00
2019-05-03T22:59:45.025Z,13.43
2019-05-03T23:02:16.800Z,13.57
2019-05-03T23:04:45.715Z,12.23
2019-05-03T23:07:15.245Z,11.93
2019-05-03T23:09:44.859Z,11.77
2019-05-03T23:12:14.294Z,11.30
2019-05-03T23:14:44.712Z,11.23
2019-05-03T23:17:15.005Z,11.13
2019-05-03T23:19:46.742Z,11.63
2019-05-03T23:22:24.603Z,12.90
2019-05-03T23:24:54.790Z,14.37
2019-05-03T23:27:25.016Z,14.07
2019-05-03T23:29:54.725Z,13.13
2019-05-03T23:32:24.579Z,13.33
2019-05-03T23:34:54.516Z,13.50
2019-05-03T23:37:24.144Z,12.83
2019-05-03T23:39:55.147Z,13.03
2019-05-03T23:42:24.798Z,13.10
2019-05-03T23:44:54.352Z,13.03
2019-05-03T23:47:44.856Z,12.90
2019-05-03T23:50:17.231Z,11.90
2019-05-03T23:52:46.786Z,11.67
2019-05-03T23:55:37.529Z,11.60
2019-05-03T23:58:07.020Z,11.70
